sensor_id;sensor_type;location;lat;lon;timestamp;temperature;humidity
12386;DHT22;6257;57.634;18.310;2023-04-15T00:02:15;7.60;99.90
12386;DHT22;6257;57.634;18.310;2023-04-15T00:04:43;7.60;99.90
12386;DHT22;6257;57.634;18.310;2023-04-15T00:07:10;7.60;99.90
12386;DHT22;6257;57.634;18.310;2023-04-15T00:09:37;7.60;99.90
12386;DHT22;6257;57.634;18.310;2023-04-15T00:12:04;7.50;99.90
12386;DHT22;6257;57.634;18.310;2023-04-15T00:14:32;7.50;99.90
12386;DHT22;6257;57.634;18.310;2023-04-15T00:17:01;7.50;99.90
12386;DHT22;6257;57.634;18.310;2023-04-15T00:19:28;7.50;99.90
12386;DHT22;6257;57.634;18.310;2023-04-15T00:21:55;7.50;99.90
12386;DHT22;6257;57.634;18.310;2023-04-15T00:24:22;7.50;99.90
12386;DHT22;6257;57.634;18.310;2023-04-15T00:26:49;7.40;99.90
12386;DHT22;6257;57.634;18.310;2023-04-15T00:29:16;7.40;99.90
12386;DHT22;6257;57.634;18.310;2023-04-15T00:31:44;7.30;99.90
12386;DHT22;6257;57.634;18.310;2023-04-15T00:34:12;7.20;99.90
12386;DHT22;6257;57.634;18.310;2023-04-15T00:36:39;7.20;99.90
12386;DHT22;6257;57.634;18.310;2023-04-15T00:39:06;7.10;99.90
12386;DHT22;6257;57.634;18.310;2023-04-15T00:41:33;7.00;99.90
12386;DHT22;6257;57.634;18.310;2023-04-15T00:44:04;7.00;99.90
12386;DHT22;6257;57.634;18.310;2023-04-15T00:46:34;6.90;99.90
12386;DHT22;6257;57.634;18.310;2023-04-15T00:49:02;6.90;99.90
12386;DHT22;6257;57.634;18.310;2023-04-15T00:51:31;6.80;99.90
12386;DHT22;6257;57.634;18.310;2023-04-15T00:54:00;6.80;99.90
12386;DHT22;6257;57.634;18.310;2023-04-15T00:56:28;6.70;99.90
12386;DHT22;6257;57.634;18.310;2023-04-15T00:58:56;6.70;99.90
12386;DHT22;6257;57.634;18.310;2023-04-15T01:01:24;6.70;99.90
12386;DHT22;6257;57.634;18.310;2023-04-15T01:03:51;6.60;99.90
12386;DHT22;6257;57.634;18.310;2023-04-15T01:06:19;6.50;99.90
12386;DHT22;6257;57.634;18.310;2023-04-15T01:08:47;6.50;99.90
12386;DHT22;6257;57.634;18.310;2023-04-15T01:11:15;6.50;99.90
12386;DHT22;6257;57.634;18.310;2023-04-15T01:13:42;6.50;99.90
12386;DHT22;6257;57.634;18.310;2023-04-15T01:16:10;6.50;99.90
12386;DHT22;6257;57.634;18.310;2023-04-15T01:18:38;6.50;99.90
12386;DHT22;6257;57.634;18.310;2023-04-15T01:21:05;6.50;99.90
12386;DHT22;6257;57.634;18.310;2023-04-15T01:23:35;6.50;99.90
12386;DHT22;6257;57.634;18.310;2023-04-15T01:26:04;6.50;99.90
12386;DHT22;6257;57.634;18.310;2023-04-15T01:28:33;6.40;99.90
12386;DHT22;6257;57.634;18.310;2023-04-15T01:31:08;6.40;99.90
12386;DHT22;6257;57.634;18.310;2023-04-15T01:33:36;6.40;99.90
12386;DHT22;6257;57.634;18.310;2023-04-15T01:36:04;6.40;99.90
12386;DHT22;6257;57.634;18.310;2023-04-15T01:38:33;6.40;99.90
12386;DHT22;6257;57.634;18.310;2023-04-15T01:41:00;6.40;99.90
12386;DHT22;6257;57.634;18.310;2023-04-15T01:43:30;6.40;99.90
12386;DHT22;6257;57.634;18.310;2023-04-15T01:45:57;6.40;99.90
12386;DHT22;6257;57.634;18.310;2023-04-15T01:48:24;6.40;99.90
12386;DHT22;6257;57.634;18.310;2023-04-15T01:50:53;6.40;99.90
12386;DHT22;6257;57.634;18.310;2023-04-15T01:53:22;6.40;99.90
12386;DHT22;6257;57.634;18.310;2023-04-15T01:55:50;6.50;99.90
12386;DHT22;6257;57.634;18.310;2023-04-15T01:58:17;6.50;99.90
12386;DHT22;6257;57.634;18.310;2023-04-15T02:00:46;6.40;99.90
12386;DHT22;6257;57.634;18.310;2023-04-15T02:03:13;6.40;99.90
12386;DHT22;6257;57.634;18.310;2023-04-15T02:05:40;6.50;99.90
12386;DHT22;6257;57.634;18.310;2023-04-15T02:08:08;6.50;99.90
12386;DHT22;6257;57.634;18.310;2023-04-15T02:10:35;6.50;99.90
12386;DHT22;6257;57.634;18.310;2023-04-15T02:13:02;6.50;99.90
12386;DHT22;6257;57.634;18.310;2023-04-15T02:15:29;6.60;99.90
12386;DHT22;6257;57.634;18.310;2023-04-15T02:17:57;6.60;99.90
12386;DHT22;6257;57.634;18.310;2023-04-15T02:20:25;6.60;99.90
12386;DHT22;6257;57.634;18.310;2023-04-15T02:22:52;6.60;99.90
12386;DHT22;6257;57.634;18.310;2023-04-15T02:25:19;6.60;99.90
12386;DHT22;6257;57.634;18.310;2023-04-15T02:27:46;6.70;99.90
12386;DHT22;6257;57.634;18.310;2023-04-15T02:30:13;6.70;99.90
12386;DHT22;6257;57.634;18.310;2023-04-15T02:32:41;6.80;99.90
12386;DHT22;6257;57.634;18.310;2023-04-15T02:35:11;6.80;99.90
12386;DHT22;6257;57.634;18.310;2023-04-15T02:37:38;6.80;99.90
12386;DHT22;6257;57.634;18.310;2023-04-15T02:40:08;6.80;99.90
12386;DHT22;6257;57.634;18.310;2023-04-15T02:42:37;6.80;99.90
12386;DHT22;6257;57.634;18.310;2023-04-15T02:45:05;6.80;99.90
12386;DHT22;6257;57.634;18.310;2023-04-15T02:47:32;6.80;99.90
12386;DHT22;6257;57.634;18.310;2023-04-15T02:50:01;6.80;99.90
12386;DHT22;6257;57.634;18.310;2023-04-15T02:52:29;6.80;99.90
12386;DHT22;6257;57.634;18.310;2023-04-15T02:54:57;6.90;99.90
12386;DHT22;6257;57.634;18.310;2023-04-15T02:57:26;6.80;99.90
12386;DHT22;6257;57.634;18.310;2023-04-15T02:59:54;5.70;99.90
12386;DHT22;6257;57.634;18.310;2023-04-15T03:02:21;6.90;99.90
12386;DHT22;6257;57.634;18.310;2023-04-15T03:04:48;6.90;99.90
12386;DHT22;6257;57.634;18.310;2023-04-15T03:07:16;6.90;99.90
12386;DHT22;6257;57.634;18.310;2023-04-15T03:09:45;6.90;99.90
12386;DHT22;6257;57.634;18.310;2023-04-15T03:12:12;6.90;99.90
12386;DHT22;6257;57.634;18.310;2023-04-15T03:14:39;6.80;99.90
12386;DHT22;6257;57.634;18.310;2023-04-15T03:17:06;6.80;99.90
12386;DHT22;6257;57.634;18.310;2023-04-15T03:19:33;6.90;99.90
12386;DHT22;6257;57.634;18.310;2023-04-15T03:22:00;6.90;99.90
12386;DHT22;6257;57.634;18.310;2023-04-15T03:24:27;6.90;99.90
12386;DHT22;6257;57.634;18.310;2023-04-15T03:26:56;6.90;99.90
12386;DHT22;6257;57.634;18.310;2023-04-15T03:29:23;6.80;99.90
12386;DHT22;6257;57.634;18.310;2023-04-15T03:31:51;6.80;99.90
12386;DHT22;6257;57.634;18.310;2023-04-15T03:34:18;6.80;99.90
12386;DHT22;6257;57.634;18.310;2023-04-15T03:36:45;6.80;99.90
12386;DHT22;6257;57.634;18.310;2023-04-15T03:39:12;6.80;99.90
12386;DHT22;6257;57.634;18.310;2023-04-15T03:41:40;6.80;99.90
12386;DHT22;6257;57.634;18.310;2023-04-15T03:44:08;6.80;99.90
12386;DHT22;6257;57.634;18.310;2023-04-15T03:46:35;6.70;99.90
12386;DHT22;6257;57.634;18.310;2023-04-15T03:49:02;6.70;99.90
12386;DHT22;6257;57.634;18.310;2023-04-15T03:51:29;6.70;99.90
12386;DHT22;6257;57.634;18.310;2023-04-15T03:53:57;6.70;99.90
12386;DHT22;6257;57.634;18.310;2023-04-15T03:56:24;6.70;99.90
12386;DHT22;6257;57.634;18.310;2023-04-15T03:58:51;6.70;99.90
12386;DHT22;6257;57.634;18.310;2023-04-15T04:01:20;6.70;99.90
12386;DHT22;6257;57.634;18.310;2023-04-15T04:03:47;6.70;99.90
12386;DHT22;6257;57.634;18.310;2023-04-15T04:06:14;6.70;99.90
12386;DHT22;6257;57.634;18.310;2023-04-15T04:08:41;6.70;99.90
12386;DHT22;6257;57.634;18.310;2023-04-15T04:11:08;6.70;99.90
12386;DHT22;6257;57.634;18.310;2023-04-15T04:13:35;6.70;99.90
12386;DHT22;6257;57.634;18.310;2023-04-15T04:16:03;6.60;99.90
12386;DHT22;6257;57.634;18.310;2023-04-15T04:18:32;6.60;99.90
12386;DHT22;6257;57.634;18.310;2023-04-15T04:20:59;6.60;99.90
12386;DHT22;6257;57.634;18.310;2023-04-15T04:23:26;6.60;99.90
12386;DHT22;6257;57.634;18.310;2023-04-15T04:25:53;6.60;99.90
12386;DHT22;6257;57.634;18.310;2023-04-15T04:28:20;6.60;99.90
12386;DHT22;6257;57.634;18.310;2023-04-15T04:30:48;6.60;99.90
12386;DHT22;6257;57.634;18.310;2023-04-15T04:33:15;6.60;99.90
12386;DHT22;6257;57.634;18.310;2023-04-15T04:35:43;6.60;99.90
12386;DHT22;6257;57.634;18.310;2023-04-15T04:38:10;6.60;99.90
12386;DHT22;6257;57.634;18.310;2023-04-15T04:40:38;6.60;99.90
12386;DHT22;6257;57.634;18.310;2023-04-15T04:43:05;6.60;99.90
12386;DHT22;6257;57.634;18.310;2023-04-15T04:45:32;6.60;99.90
12386;DHT22;6257;57.634;18.310;2023-04-15T04:47:59;4.80;99.90
12386;DHT22;6257;57.634;18.310;2023-04-15T04:50:26;6.70;99.90
12386;DHT22;6257;57.634;18.310;2023-04-15T04:52:54;6.80;99.90
12386;DHT22;6257;57.634;18.310;2023-04-15T04:55:21;6.80;99.90
12386;DHT22;6257;57.634;18.310;2023-04-15T04:57:48;6.80;99.90
12386;DHT22;6257;57.634;18.310;2023-04-15T05:00:16;6.80;99.90
12386;DHT22;6257;57.634;18.310;2023-04-15T05:02:43;6.90;99.90
12386;DHT22;6257;57.634;18.310;2023-04-15T05:05:11;6.90;99.90
12386;DHT22;6257;57.634;18.310;2023-04-15T05:07:38;6.90;99.90
12386;DHT22;6257;57.634;18.310;2023-04-15T05:10:08;7.00;99.90
12386;DHT22;6257;57.634;18.310;2023-04-15T05:12:36;7.00;99.90
12386;DHT22;6257;57.634;18.310;2023-04-15T05:15:04;7.00;99.90
12386;DHT22;6257;57.634;18.310;2023-04-15T05:17:31;7.00;99.90
12386;DHT22;6257;57.634;18.310;2023-04-15T05:19:59;7.10;99.90
12386;DHT22;6257;57.634;18.310;2023-04-15T05:22:27;7.20;99.90
12386;DHT22;6257;57.634;18.310;2023-04-15T05:24:54;7.20;99.90
12386;DHT22;6257;57.634;18.310;2023-04-15T05:27:22;7.20;99.90
12386;DHT22;6257;57.634;18.310;2023-04-15T05:29:49;7.20;99.90
12386;DHT22;6257;57.634;18.310;2023-04-15T05:32:16;7.20;99.90
12386;DHT22;6257;57.634;18.310;2023-04-15T05:34:43;7.20;99.90
12386;DHT22;6257;57.634;18.310;2023-04-15T05:37:10;7.30;99.90
12386;DHT22;6257;57.634;18.310;2023-04-15T05:39:37;7.30;99.90
12386;DHT22;6257;57.634;18.310;2023-04-15T05:42:04;7.50;99.90
12386;DHT22;6257;57.634;18.310;2023-04-15T05:44:33;7.70;99.90
12386;DHT22;6257;57.634;18.310;2023-04-15T05:47:00;7.80;99.90
12386;DHT22;6257;57.634;18.310;2023-04-15T05:49:28;8.00;99.90
12386;DHT22;6257;57.634;18.310;2023-04-15T05:51:55;8.10;99.90
12386;DHT22;6257;57.634;18.310;2023-04-15T05:54:22;8.20;99.90
12386;DHT22;6257;57.634;18.310;2023-04-15T05:56:49;8.30;99.90
12386;DHT22;6257;57.634;18.310;2023-04-15T05:59:16;8.40;99.90
12386;DHT22;6257;57.634;18.310;2023-04-15T06:01:45;8.50;99.90
12386;DHT22;6257;57.634;18.310;2023-04-15T06:04:12;8.50;99.90
12386;DHT22;6257;57.634;18.310;2023-04-15T06:06:39;8.50;99.90
12386;DHT22;6257;57.634;18.310;2023-04-15T06:09:06;8.40;99.90
12386;DHT22;6257;57.634;18.310;2023-04-15T06:11:33;8.40;99.90
12386;DHT22;6257;57.634;18.310;2023-04-15T06:14:00;8.50;99.90
12386;DHT22;6257;57.634;18.310;2023-04-15T06:16:27;8.40;99.90
12386;DHT22;6257;57.634;18.310;2023-04-15T06:18:56;8.40;99.90
12386;DHT22;6257;57.634;18.310;2023-04-15T06:21:23;8.40;99.90
12386;DHT22;6257;57.634;18.310;2023-04-15T06:23:50;8.40;99.90
12386;DHT22;6257;57.634;18.310;2023-04-15T06:26:17;8.40;99.90
12386;DHT22;6257;57.634;18.310;2023-04-15T06:28:44;8.50;99.90
12386;DHT22;6257;57.634;18.310;2023-04-15T06:31:11;8.50;99.90
12386;DHT22;6257;57.634;18.310;2023-04-15T06:33:38;8.70;99.90
12386;DHT22;6257;57.634;18.310;2023-04-15T06:36:06;8.70;99.90
12386;DHT22;6257;57.634;18.310;2023-04-15T06:38:34;8.70;99.90
12386;DHT22;6257;57.634;18.310;2023-04-15T06:41:01;8.70;99.90
12386;DHT22;6257;57.634;18.310;2023-04-15T06:43:28;8.60;99.90
12386;DHT22;6257;57.634;18.310;2023-04-15T06:45:55;8.70;99.90
12386;DHT22;6257;57.634;18.310;2023-04-15T06:48:22;8.60;99.90
12386;DHT22;6257;57.634;18.310;2023-04-15T06:50:49;8.60;99.90
12386;DHT22;6257;57.634;18.310;2023-04-15T06:53:18;8.70;99.90
12386;DHT22;6257;57.634;18.310;2023-04-15T06:55:45;8.90;99.90
12386;DHT22;6257;57.634;18.310;2023-04-15T06:58:12;8.90;99.90
12386;DHT22;6257;57.634;18.310;2023-04-15T07:00:39;8.90;99.90
12386;DHT22;6257;57.634;18.310;2023-04-15T07:03:06;9.00;99.90
12386;DHT22;6257;57.634;18.310;2023-04-15T07:05:35;9.10;99.90
12386;DHT22;6257;57.634;18.310;2023-04-15T07:08:03;9.10;99.90
12386;DHT22;6257;57.634;18.310;2023-04-15T07:10:31;9.10;99.90
12386;DHT22;6257;57.634;18.310;2023-04-15T07:12:58;9.20;99.90
12386;DHT22;6257;57.634;18.310;2023-04-15T07:15:26;9.30;99.90
12386;DHT22;6257;57.634;18.310;2023-04-15T07:17:53;9.20;99.90
12386;DHT22;6257;57.634;18.310;2023-04-15T07:20:20;9.20;99.90
12386;DHT22;6257;57.634;18.310;2023-04-15T07:22:47;9.20;99.90
12386;DHT22;6257;57.634;18.310;2023-04-15T07:25:14;9.30;99.90
12386;DHT22;6257;57.634;18.310;2023-04-15T07:27:43;9.40;99.90
12386;DHT22;6257;57.634;18.310;2023-04-15T07:30:11;9.40;99.90
12386;DHT22;6257;57.634;18.310;2023-04-15T07:32:38;9.60;99.90
12386;DHT22;6257;57.634;18.310;2023-04-15T07:35:06;9.60;99.90
12386;DHT22;6257;57.634;18.310;2023-04-15T07:37:34;9.80;99.90
12386;DHT22;6257;57.634;18.310;2023-04-15T07:40:02;10.00;99.90
12386;DHT22;6257;57.634;18.310;2023-04-15T07:42:29;10.40;99.90
12386;DHT22;6257;57.634;18.310;2023-04-15T07:44:58;10.50;99.90
12386;DHT22;6257;57.634;18.310;2023-04-15T07:47:25;11.00;99.90
12386;DHT22;6257;57.634;18.310;2023-04-15T07:49:52;12.70;99.90
12386;DHT22;6257;57.634;18.310;2023-04-15T07:52:19;11.60;99.90
12386;DHT22;6257;57.634;18.310;2023-04-15T07:54:46;11.40;99.90
12386;DHT22;6257;57.634;18.310;2023-04-15T07:57:13;11.40;99.90
12386;DHT22;6257;57.634;18.310;2023-04-15T07:59:41;11.50;99.90
12386;DHT22;6257;57.634;18.310;2023-04-15T08:02:10;11.80;99.90
12386;DHT22;6257;57.634;18.310;2023-04-15T08:04:37;11.70;99.90
12386;DHT22;6257;57.634;18.310;2023-04-15T08:07:04;11.60;99.90
12386;DHT22;6257;57.634;18.310;2023-04-15T08:09:31;12.00;99.90
12386;DHT22;6257;57.634;18.310;2023-04-15T08:11:58;12.00;99.90
12386;DHT22;6257;57.634;18.310;2023-04-15T08:14:25;11.80;99.90
12386;DHT22;6257;57.634;18.310;2023-04-15T08:16:52;11.80;99.90
12386;DHT22;6257;57.634;18.310;2023-04-15T08:19:21;12.10;99.90
12386;DHT22;6257;57.634;18.310;2023-04-15T08:21:48;13.00;99.90
12386;DHT22;6257;57.634;18.310;2023-04-15T08:24:15;12.80;99.90
12386;DHT22;6257;57.634;18.310;2023-04-15T08:26:43;13.20;99.90
12386;DHT22;6257;57.634;18.310;2023-04-15T08:29:11;13.80;99.90
12386;DHT22;6257;57.634;18.310;2023-04-15T08:31:38;13.10;99.90
12386;DHT22;6257;57.634;18.310;2023-04-15T08:34:05;13.20;99.90
12386;DHT22;6257;57.634;18.310;2023-04-15T08:36:34;13.70;99.90
12386;DHT22;6257;57.634;18.310;2023-04-15T08:39:01;14.20;99.90
12386;DHT22;6257;57.634;18.310;2023-04-15T08:41:35;14.20;99.90
12386;DHT22;6257;57.634;18.310;2023-04-15T08:44:04;14.00;99.90
12386;DHT22;6257;57.634;18.310;2023-04-15T08:46:32;14.00;99.90
12386;DHT22;6257;57.634;18.310;2023-04-15T08:49:02;13.30;99.90
12386;DHT22;6257;57.634;18.310;2023-04-15T08:51:31;12.70;99.90
12386;DHT22;6257;57.634;18.310;2023-04-15T08:54:00;12.40;99.90
12386;DHT22;6257;57.634;18.310;2023-04-15T08:56:27;12.20;99.90
12386;DHT22;6257;57.634;18.310;2023-04-15T08:58:57;12.10;99.90
12386;DHT22;6257;57.634;18.310;2023-04-15T09:01:25;11.80;99.90
12386;DHT22;6257;57.634;18.310;2023-04-15T09:03:52;11.60;99.90
12386;DHT22;6257;57.634;18.310;2023-04-15T09:06:20;11.40;99.90
12386;DHT22;6257;57.634;18.310;2023-04-15T09:08:47;11.50;99.90
12386;DHT22;6257;57.634;18.310;2023-04-15T09:11:16;11.40;99.90
12386;DHT22;6257;57.634;18.310;2023-04-15T09:13:44;11.20;99.90
12386;DHT22;6257;57.634;18.310;2023-04-15T09:16:12;11.20;99.90
12386;DHT22;6257;57.634;18.310;2023-04-15T09:18:40;11.20;99.90
12386;DHT22;6257;57.634;18.310;2023-04-15T09:21:08;11.10;99.90
12386;DHT22;6257;57.634;18.310;2023-04-15T09:23:36;11.20;99.90
12386;DHT22;6257;57.634;18.310;2023-04-15T09:26:04;11.40;99.90
12386;DHT22;6257;57.634;18.310;2023-04-15T09:28:40;11.60;99.90
12386;DHT22;6257;57.634;18.310;2023-04-15T09:31:07;11.50;99.90
12386;DHT22;6257;57.634;18.310;2023-04-15T09:33:35;11.30;99.90
12386;DHT22;6257;57.634;18.310;2023-04-15T09:36:04;11.30;99.90
12386;DHT22;6257;57.634;18.310;2023-04-15T09:38:31;11.40;99.90
12386;DHT22;6257;57.634;18.310;2023-04-15T09:40:59;11.20;99.90
12386;DHT22;6257;57.634;18.310;2023-04-15T09:43:39;11.10;99.90
12386;DHT22;6257;57.634;18.310;2023-04-15T09:46:07;11.20;99.90
12386;DHT22;6257;57.634;18.310;2023-04-15T09:48:34;11.40;99.90
12386;DHT22;6257;57.634;18.310;2023-04-15T09:51:01;11.30;99.90
12386;DHT22;6257;57.634;18.310;2023-04-15T09:53:28;11.30;99.90
12386;DHT22;6257;57.634;18.310;2023-04-15T09:55:56;11.30;99.90
12386;DHT22;6257;57.634;18.310;2023-04-15T09:58:26;11.40;99.90
12386;DHT22;6257;57.634;18.310;2023-04-15T10:00:56;11.30;99.90
12386;DHT22;6257;57.634;18.310;2023-04-15T10:03:25;11.30;99.90
12386;DHT22;6257;57.634;18.310;2023-04-15T10:05:54;11.40;99.90
12386;DHT22;6257;57.634;18.310;2023-04-15T10:08:23;11.30;99.90
12386;DHT22;6257;57.634;18.310;2023-04-15T10:10:51;11.30;99.90
12386;DHT22;6257;57.634;18.310;2023-04-15T10:13:20;11.30;99.90
12386;DHT22;6257;57.634;18.310;2023-04-15T10:15:50;11.20;99.90
12386;DHT22;6257;57.634;18.310;2023-04-15T10:18:19;11.30;99.90
12386;DHT22;6257;57.634;18.310;2023-04-15T10:20:47;11.20;99.90
12386;DHT22;6257;57.634;18.310;2023-04-15T10:23:17;11.30;99.90
12386;DHT22;6257;57.634;18.310;2023-04-15T10:25:45;11.30;99.90
12386;DHT22;6257;57.634;18.310;2023-04-15T10:28:14;11.30;99.90
12386;DHT22;6257;57.634;18.310;2023-04-15T10:30:42;11.40;99.90
12386;DHT22;6257;57.634;18.310;2023-04-15T10:33:10;11.50;99.90
12386;DHT22;6257;57.634;18.310;2023-04-15T10:35:39;11.50;99.90
12386;DHT22;6257;57.634;18.310;2023-04-15T10:38:30;11.60;99.90
12386;DHT22;6257;57.634;18.310;2023-04-15T10:41:11;11.60;99.90
12386;DHT22;6257;57.634;18.310;2023-04-15T10:43:39;11.40;99.90
12386;DHT22;6257;57.634;18.310;2023-04-15T10:46:06;11.40;99.90
12386;DHT22;6257;57.634;18.310;2023-04-15T10:48:33;11.50;99.90
12386;DHT22;6257;57.634;18.310;2023-04-15T10:51:01;11.60;99.90
12386;DHT22;6257;57.634;18.310;2023-04-15T10:53:30;11.60;99.90
12386;DHT22;6257;57.634;18.310;2023-04-15T10:55:57;11.70;99.90
12386;DHT22;6257;57.634;18.310;2023-04-15T10:58:25;11.80;99.90
12386;DHT22;6257;57.634;18.310;2023-04-15T11:00:52;11.80;99.90
12386;DHT22;6257;57.634;18.310;2023-04-15T11:03:36;11.90;99.90
12386;DHT22;6257;57.634;18.310;2023-04-15T11:06:05;11.90;99.90
12386;DHT22;6257;57.634;18.310;2023-04-15T11:08:53;11.90;99.90
12386;DHT22;6257;57.634;18.310;2023-04-15T11:11:20;12.00;99.90
12386;DHT22;6257;57.634;18.310;2023-04-15T11:13:48;12.00;99.90
12386;DHT22;6257;57.634;18.310;2023-04-15T11:16:16;12.20;99.90
12386;DHT22;6257;57.634;18.310;2023-04-15T11:18:52;12.10;99.90
12386;DHT22;6257;57.634;18.310;2023-04-15T11:21:23;12.20;99.90
12386;DHT22;6257;57.634;18.310;2023-04-15T11:23:52;12.00;99.90
12386;DHT22;6257;57.634;18.310;2023-04-15T11:26:25;11.80;99.90
12386;DHT22;6257;57.634;18.310;2023-04-15T11:28:52;11.90;99.90
12386;DHT22;6257;57.634;18.310;2023-04-15T11:31:19;11.90;99.90
12386;DHT22;6257;57.634;18.310;2023-04-15T11:33:54;11.90;99.90
12386;DHT22;6257;57.634;18.310;2023-04-15T11:36:25;11.80;99.90
12386;DHT22;6257;57.634;18.310;2023-04-15T11:38:53;11.80;99.90
12386;DHT22;6257;57.634;18.310;2023-04-15T11:41:20;11.90;99.90
12386;DHT22;6257;57.634;18.310;2023-04-15T11:43:48;11.80;99.90
12386;DHT22;6257;57.634;18.310;2023-04-15T11:46:15;11.70;99.90
12386;DHT22;6257;57.634;18.310;2023-04-15T11:48:44;11.70;99.90
12386;DHT22;6257;57.634;18.310;2023-04-15T11:51:12;11.80;99.90
12386;DHT22;6257;57.634;18.310;2023-04-15T11:53:42;11.80;99.90
12386;DHT22;6257;57.634;18.310;2023-04-15T11:56:10;11.70;99.90
12386;DHT22;6257;57.634;18.310;2023-04-15T11:58:42;11.60;99.90
12386;DHT22;6257;57.634;18.310;2023-04-15T12:01:11;11.70;99.90
12386;DHT22;6257;57.634;18.310;2023-04-15T12:03:39;11.60;99.90
12386;DHT22;6257;57.634;18.310;2023-04-15T12:06:12;11.70;99.90
12386;DHT22;6257;57.634;18.310;2023-04-15T12:08:59;11.80;99.90
12386;DHT22;6257;57.634;18.310;2023-04-15T12:11:28;11.90;99.90
12386;DHT22;6257;57.634;18.310;2023-04-15T12:13:57;12.10;99.90
12386;DHT22;6257;57.634;18.310;2023-04-15T12:16:24;12.00;99.90
12386;DHT22;6257;57.634;18.310;2023-04-15T12:18:54;11.80;99.90
12386;DHT22;6257;57.634;18.310;2023-04-15T12:21:23;11.70;99.90
12386;DHT22;6257;57.634;18.310;2023-04-15T12:23:52;11.60;99.90
12386;DHT22;6257;57.634;18.310;2023-04-15T12:26:26;11.70;99.90
12386;DHT22;6257;57.634;18.310;2023-04-15T12:28:53;11.70;99.90
12386;DHT22;6257;57.634;18.310;2023-04-15T12:31:21;11.70;99.90
12386;DHT22;6257;57.634;18.310;2023-04-15T12:33:48;11.90;99.90
12386;DHT22;6257;57.634;18.310;2023-04-15T12:36:15;12.00;99.90
12386;DHT22;6257;57.634;18.310;2023-04-15T12:38:42;12.00;99.90
12386;DHT22;6257;57.634;18.310;2023-04-15T12:41:11;12.00;99.90
12386;DHT22;6257;57.634;18.310;2023-04-15T12:43:38;11.80;99.90
12386;DHT22;6257;57.634;18.310;2023-04-15T12:46:05;11.70;99.90
12386;DHT22;6257;57.634;18.310;2023-04-15T12:48:33;11.60;99.90
12386;DHT22;6257;57.634;18.310;2023-04-15T12:51:00;11.50;99.90
12386;DHT22;6257;57.634;18.310;2023-04-15T12:53:27;11.40;99.90
12386;DHT22;6257;57.634;18.310;2023-04-15T12:55:54;11.30;99.90
12386;DHT22;6257;57.634;18.310;2023-04-15T12:58:22;11.30;99.90
12386;DHT22;6257;57.634;18.310;2023-04-15T13:00:49;11.10;99.90
12386;DHT22;6257;57.634;18.310;2023-04-15T13:03:16;11.10;99.90
12386;DHT22;6257;57.634;18.310;2023-04-15T13:05:43;11.00;99.90
12386;DHT22;6257;57.634;18.310;2023-04-15T13:08:10;11.00;99.90
12386;DHT22;6257;57.634;18.310;2023-04-15T13:10:37;11.10;99.90
12386;DHT22;6257;57.634;18.310;2023-04-15T13:13:05;11.00;99.90
12386;DHT22;6257;57.634;18.310;2023-04-15T13:18:01;11.30;99.90
12386;DHT22;6257;57.634;18.310;2023-04-15T13:20:28;11.10;99.90
12386;DHT22;6257;57.634;18.310;2023-04-15T13:22:55;11.10;99.90
12386;DHT22;6257;57.634;18.310;2023-04-15T13:25:22;11.30;99.90
12386;DHT22;6257;57.634;18.310;2023-04-15T13:27:50;11.30;99.90
12386;DHT22;6257;57.634;18.310;2023-04-15T13:30:17;11.30;99.90
12386;DHT22;6257;57.634;18.310;2023-04-15T13:32:46;11.30;99.90
12386;DHT22;6257;57.634;18.310;2023-04-15T13:35:13;11.40;99.90
12386;DHT22;6257;57.634;18.310;2023-04-15T13:37:40;11.50;99.90
12386;DHT22;6257;57.634;18.310;2023-04-15T13:40:08;11.50;99.90
12386;DHT22;6257;57.634;18.310;2023-04-15T13:42:35;11.30;99.90
12386;DHT22;6257;57.634;18.310;2023-04-15T13:45:03;11.30;99.90
12386;DHT22;6257;57.634;18.310;2023-04-15T13:47:30;11.20;99.90
12386;DHT22;6257;57.634;18.310;2023-04-15T13:49:58;11.10;99.90
12386;DHT22;6257;57.634;18.310;2023-04-15T13:52:25;11.10;99.90
12386;DHT22;6257;57.634;18.310;2023-04-15T13:54:52;11.10;99.90
12386;DHT22;6257;57.634;18.310;2023-04-15T13:57:19;11.00;99.90
12386;DHT22;6257;57.634;18.310;2023-04-15T13:59:46;11.20;99.90
12386;DHT22;6257;57.634;18.310;2023-04-15T14:02:13;11.10;99.90
12386;DHT22;6257;57.634;18.310;2023-04-15T14:04:41;10.90;99.90
12386;DHT22;6257;57.634;18.310;2023-04-15T14:07:09;10.80;99.90
12386;DHT22;6257;57.634;18.310;2023-04-15T14:09:36;10.70;99.90
12386;DHT22;6257;57.634;18.310;2023-04-15T14:12:04;10.60;99.90
12386;DHT22;6257;57.634;18.310;2023-04-15T14:14:31;10.40;99.90
12386;DHT22;6257;57.634;18.310;2023-04-15T14:16:58;10.40;99.90
12386;DHT22;6257;57.634;18.310;2023-04-15T14:19:25;10.40;99.90
12386;DHT22;6257;57.634;18.310;2023-04-15T14:21:52;10.30;99.90
12386;DHT22;6257;57.634;18.310;2023-04-15T14:24:21;10.30;99.90
12386;DHT22;6257;57.634;18.310;2023-04-15T14:26:48;10.30;99.90
12386;DHT22;6257;57.634;18.310;2023-04-15T14:29:15;10.40;99.90
12386;DHT22;6257;57.634;18.310;2023-04-15T14:31:42;10.30;99.90
12386;DHT22;6257;57.634;18.310;2023-04-15T14:34:09;10.30;99.90
12386;DHT22;6257;57.634;18.310;2023-04-15T14:36:36;10.20;99.90
12386;DHT22;6257;57.634;18.310;2023-04-15T14:39:03;10.30;99.90
12386;DHT22;6257;57.634;18.310;2023-04-15T14:41:32;10.30;99.90
12386;DHT22;6257;57.634;18.310;2023-04-15T14:43:59;10.30;99.90
12386;DHT22;6257;57.634;18.310;2023-04-15T14:46:26;10.30;99.90
12386;DHT22;6257;57.634;18.310;2023-04-15T14:48:54;10.20;99.90
12386;DHT22;6257;57.634;18.310;2023-04-15T14:51:21;10.10;99.90
12386;DHT22;6257;57.634;18.310;2023-04-15T14:53:48;10.20;99.90
12386;DHT22;6257;57.634;18.310;2023-04-15T14:56:15;10.30;99.90
12386;DHT22;6257;57.634;18.310;2023-04-15T14:58:44;10.30;99.90
12386;DHT22;6257;57.634;18.310;2023-04-15T15:01:11;10.30;99.90
12386;DHT22;6257;57.634;18.310;2023-04-15T15:03:38;10.20;99.90
12386;DHT22;6257;57.634;18.310;2023-04-15T15:06:05;10.10;99.90
12386;DHT22;6257;57.634;18.310;2023-04-15T15:08:32;10.10;99.90
12386;DHT22;6257;57.634;18.310;2023-04-15T15:10:59;10.10;99.90
12386;DHT22;6257;57.634;18.310;2023-04-15T15:13:26;10.10;99.90
12386;DHT22;6257;57.634;18.310;2023-04-15T15:15:55;10.10;99.90
12386;DHT22;6257;57.634;18.310;2023-04-15T15:18:22;10.00;99.90
12386;DHT22;6257;57.634;18.310;2023-04-15T15:20:50;10.00;99.90
12386;DHT22;6257;57.634;18.310;2023-04-15T15:23:17;10.00;99.90
12386;DHT22;6257;57.634;18.310;2023-04-15T15:25:45;9.90;99.90
12386;DHT22;6257;57.634;18.310;2023-04-15T15:28:12;9.80;99.90
12386;DHT22;6257;57.634;18.310;2023-04-15T15:30:39;9.70;99.90
12386;DHT22;6257;57.634;18.310;2023-04-15T15:33:08;9.90;99.90
12386;DHT22;6257;57.634;18.310;2023-04-15T15:35:35;10.00;99.90
12386;DHT22;6257;57.634;18.310;2023-04-15T15:38:02;10.10;99.90
12386;DHT22;6257;57.634;18.310;2023-04-15T15:40:29;10.10;99.90
12386;DHT22;6257;57.634;18.310;2023-04-15T15:42:56;10.00;99.90
12386;DHT22;6257;57.634;18.310;2023-04-15T15:45:23;10.10;99.90